Terminal Aerodrome Forecast
Issued by NWS

Home | Current Version | Previous Version | Text Only | Print | Product List | Glossary On
Versions: 1 2 3 4 5 6 7 8 9 10 11 12 13 14 15 16 17 18 19 20 21 22 23 24 25 26 27
000
FTUS43 KSGF 261400 AAB
TAFJLN
TAF AMD
KJLN 261402Z 2614/2712 24010G18KT P6SM BKN015 OVC025
      TEMPO 2616/2618 BKN025 OVC050
     FM261800 22012G18KT P6SM SCT050
     FM270000 20006KT P6SM SCT120 PROB30 2706/2712 4SM -TSRA
      OVC025CB=

USA.gov is the U.S. government's official web portal to all federal, state and local government web resources and services.